createdAt,value
2018-12-08T00:01:12.995Z,9.70
2018-12-08T00:03:40.495Z,8.60
2018-12-08T00:06:07.921Z,8.00
2018-12-08T00:08:35.385Z,11.93
2018-12-08T00:11:02.849Z,8.33
2018-12-08T00:13:30.312Z,11.43
2018-12-08T00:15:57.769Z,16.00
2018-12-08T00:18:25.322Z,12.18
2018-12-08T00:20:52.874Z,20.82
2018-12-08T00:23:20.330Z,15.07
2018-12-08T00:25:47.793Z,10.35
2018-12-08T00:28:15.250Z,13.35
2018-12-08T00:30:54.573Z,12.57
2018-12-08T00:33:21.996Z,12.10
2018-12-08T00:35:49.489Z,12.07
2018-12-08T00:38:16.948Z,14.18
2018-12-08T00:40:44.417Z,18.77
2018-12-08T00:43:11.876Z,16.55
2018-12-08T00:45:39.333Z,14.77
2018-12-08T00:48:06.801Z,10.88
2018-12-08T00:50:34.337Z,15.50
2018-12-08T00:53:01.771Z,14.17
2018-12-08T00:55:29.262Z,14.33
2018-12-08T00:57:56.673Z,13.80
2018-12-08T01:00:24.165Z,12.37
2018-12-08T01:02:51.644Z,16.20
2018-12-08T01:05:19.077Z,14.00
2018-12-08T01:07:46.652Z,11.33
2018-12-08T01:10:14.224Z,13.50
2018-12-08T01:12:41.627Z,17.48
2018-12-08T01:15:09.074Z,13.70
2018-12-08T01:17:36.492Z,17.55
2018-12-08T01:20:04.230Z,12.98
2018-12-08T01:22:31.651Z,12.90
2018-12-08T01:24:59.057Z,18.75
2018-12-08T01:27:26.511Z,13.32
2018-12-08T01:29:53.962Z,20.57
2018-12-08T01:32:21.373Z,12.40
2018-12-08T01:34:48.841Z,14.43
2018-12-08T01:37:16.348Z,14.50
2018-12-08T01:39:43.768Z,17.52
2018-12-08T01:42:11.184Z,10.53
2018-12-08T01:44:38.607Z,17.65
2018-12-08T01:47:06.017Z,17.23
2018-12-08T01:49:33.530Z,15.78
2018-12-08T01:52:00.984Z,11.08
2018-12-08T01:54:28.451Z,10.10
2018-12-08T01:56:55.854Z,18.50
2018-12-08T01:59:23.273Z,11.40
2018-12-08T02:01:50.704Z,16.57
2018-12-08T02:04:18.122Z,12.63
2018-12-08T02:06:45.546Z,17.00
2018-12-08T02:09:14.537Z,14.20
2018-12-08T02:11:42.143Z,15.48
2018-12-08T02:14:09.620Z,10.93
2018-12-08T02:16:37.026Z,19.43
2018-12-08T02:19:04.542Z,13.45
2018-12-08T02:21:32.008Z,12.07
2018-12-08T02:23:59.467Z,9.97
2018-12-08T02:26:26.906Z,10.00
2018-12-08T02:28:54.375Z,13.80
2018-12-08T02:31:21.917Z,19.82
2018-12-08T02:33:49.346Z,14.55
2018-12-08T02:36:16.849Z,16.50
2018-12-08T02:38:44.402Z,10.37
2018-12-08T02:41:11.816Z,12.82
2018-12-08T02:43:39.305Z,15.80
2018-12-08T02:46:06.880Z,10.72
2018-12-08T02:48:34.407Z,13.05
2018-12-08T02:51:01.834Z,15.53
2018-12-08T02:53:29.373Z,12.33
2018-12-08T02:55:56.817Z,14.10
2018-12-08T02:58:24.252Z,15.50
2018-12-08T03:00:51.717Z,7.90
2018-12-08T03:03:19.144Z,9.73
2018-12-08T03:05:46.612Z,12.73
2018-12-08T03:08:14.089Z,15.23
2018-12-08T03:10:41.553Z,13.85
2018-12-08T03:13:09.008Z,12.40
2018-12-08T03:15:36.415Z,10.98
2018-12-08T03:18:03.918Z,10.53
2018-12-08T03:20:31.487Z,11.93
2018-12-08T03:22:58.921Z,11.57
2018-12-08T03:25:26.395Z,11.53
2018-12-08T03:27:53.853Z,11.28
2018-12-08T03:30:21.276Z,11.85
2018-12-08T03:32:48.763Z,14.73
2018-12-08T03:35:16.205Z,11.95
2018-12-08T03:37:43.689Z,9.93
2018-12-08T03:40:11.235Z,15.30
2018-12-08T03:42:38.686Z,11.38
2018-12-08T03:45:06.226Z,12.35
2018-12-08T03:47:33.706Z,19.67
2018-12-08T03:50:01.157Z,9.00
2018-12-08T03:52:28.610Z,13.10
2018-12-08T03:54:56.092Z,9.63
2018-12-08T03:57:23.529Z,12.78
2018-12-08T03:59:51.082Z,17.47
2018-12-08T04:02:18.579Z,14.70
2018-12-08T04:04:46.002Z,13.55
2018-12-08T04:07:13.423Z,12.75
2018-12-08T04:09:40.924Z,14.98
2018-12-08T04:12:08.341Z,10.60
2018-12-08T04:14:35.829Z,15.57
2018-12-08T04:17:03.293Z,17.45
2018-12-08T04:19:30.855Z,16.40
2018-12-08T04:21:58.298Z,13.38
2018-12-08T04:24:25.880Z,11.83
2018-12-08T04:26:53.319Z,15.68
2018-12-08T04:29:20.740Z,14.93
2018-12-08T04:31:48.260Z,12.58
2018-12-08T04:34:15.689Z,13.88
2018-12-08T04:36:43.158Z,13.60
2018-12-08T04:39:10.589Z,24.25
2018-12-08T04:41:38.064Z,14.47
2018-12-08T04:44:05.527Z,13.95
2018-12-08T04:46:32.954Z,13.72
2018-12-08T04:49:00.444Z,15.03
2018-12-08T04:51:27.881Z,12.13
2018-12-08T04:53:55.354Z,9.70
2018-12-08T04:56:22.776Z,16.65
2018-12-08T04:58:50.202Z,12.10
2018-12-08T05:01:17.731Z,15.03
2018-12-08T05:03:45.289Z,13.40
2018-12-08T05:06:12.708Z,10.27
2018-12-08T05:08:40.125Z,14.28
2018-12-08T05:11:07.547Z,18.57
2018-12-08T05:13:34.957Z,13.38
2018-12-08T05:16:02.472Z,14.00
2018-12-08T05:18:29.930Z,11.68
2018-12-08T05:20:57.442Z,13.08
2018-12-08T05:23:24.844Z,13.35
2018-12-08T05:25:52.307Z,20.25
2018-12-08T05:28:19.743Z,13.55
2018-12-08T05:30:47.215Z,13.63
2018-12-08T05:33:14.661Z,14.63
2018-12-08T05:35:42.109Z,15.15
2018-12-08T05:38:09.573Z,10.77
2018-12-08T05:40:37.033Z,12.33
2018-12-08T05:43:04.596Z,7.75
2018-12-08T05:45:31.997Z,8.25
2018-12-08T05:47:59.454Z,14.25
2018-12-08T05:50:26.861Z,17.02
2018-12-08T05:52:54.350Z,14.03
2018-12-08T05:55:21.895Z,10.65
2018-12-08T05:57:49.353Z,10.88
2018-12-08T06:00:16.955Z,9.87
2018-12-08T06:02:44.383Z,20.08
2018-12-08T06:05:11.793Z,8.65
2018-12-08T06:07:39.281Z,15.20
2018-12-08T06:10:06.718Z,12.13
2018-12-08T06:12:34.192Z,11.90
2018-12-08T06:15:01.631Z,11.03
2018-12-08T06:17:29.081Z,10.53
2018-12-08T06:19:56.563Z,11.68
2018-12-08T06:22:24.019Z,9.70
2018-12-08T06:24:51.452Z,11.93
2018-12-08T06:27:19.136Z,8.60
2018-12-08T06:29:46.672Z,12.55
2018-12-08T06:32:14.088Z,10.53
2018-12-08T06:34:41.608Z,12.40
2018-12-08T06:37:09.045Z,11.20
2018-12-08T06:39:36.517Z,10.45
2018-12-08T06:42:03.929Z,13.08
2018-12-08T06:44:31.425Z,10.78
2018-12-08T06:46:58.833Z,13.60
2018-12-08T06:49:26.315Z,17.23
2018-12-08T06:51:53.725Z,9.70
2018-12-08T06:54:21.144Z,10.87
2018-12-08T06:56:48.609Z,8.08
2018-12-08T06:59:16.079Z,11.90
2018-12-08T07:01:43.485Z,7.67
2018-12-08T07:04:10.896Z,9.63
2018-12-08T07:06:38.329Z,13.40
2018-12-08T07:09:06.327Z,10.68
2018-12-08T07:11:33.871Z,10.90
2018-12-08T07:14:01.388Z,9.08
2018-12-08T07:16:28.820Z,10.10
2018-12-08T07:18:56.343Z,14.78
2018-12-08T07:21:23.889Z,10.67
2018-12-08T07:23:51.314Z,8.35
2018-12-08T07:26:18.752Z,9.93
2018-12-08T07:28:46.273Z,9.67
2018-12-08T07:31:13.680Z,7.83
2018-12-08T07:33:41.288Z,10.48
2018-12-08T07:36:08.733Z,10.77
2018-12-08T07:38:36.171Z,9.25
2018-12-08T07:41:03.649Z,11.05
2018-12-08T07:43:31.069Z,11.90
2018-12-08T07:45:58.575Z,10.30
2018-12-08T07:48:26.004Z,9.73
2018-12-08T07:50:53.538Z,12.50
2018-12-08T07:53:21.047Z,12.43
2018-12-08T07:55:48.483Z,9.98
2018-12-08T07:58:15.959Z,10.85
2018-12-08T08:00:43.387Z,8.80
2018-12-08T08:03:10.819Z,13.62
2018-12-08T08:05:38.317Z,8.33
2018-12-08T08:08:05.881Z,11.88
2018-12-08T08:10:33.352Z,12.80
2018-12-08T08:13:00.824Z,11.73
2018-12-08T08:15:28.271Z,7.75
2018-12-08T08:17:55.705Z,8.70
2018-12-08T08:20:23.169Z,10.15
2018-12-08T08:22:50.638Z,10.98
2018-12-08T08:25:18.077Z,12.70
2018-12-08T08:27:45.542Z,12.25
2018-12-08T08:30:12.989Z,11.12
2018-12-08T08:32:40.406Z,6.37
2018-12-08T08:35:08.033Z,13.25
2018-12-08T08:37:35.469Z,11.75
2018-12-08T08:40:04.285Z,8.03
2018-12-08T08:42:31.810Z,10.30
2018-12-08T08:44:59.382Z,8.73
2018-12-08T08:47:26.942Z,8.80
2018-12-08T08:49:54.645Z,6.40
2018-12-08T08:52:22.149Z,11.40
2018-12-08T08:54:49.623Z,7.70
2018-12-08T08:57:17.081Z,10.28
2018-12-08T08:59:44.508Z,13.18
2018-12-08T09:02:11.992Z,10.47
2018-12-08T09:04:39.449Z,9.28
2018-12-08T09:07:06.913Z,10.53
2018-12-08T09:09:34.368Z,14.35
2018-12-08T09:12:01.805Z,13.10
2018-12-08T09:14:29.239Z,13.78
2018-12-08T09:16:56.657Z,10.40
2018-12-08T09:19:24.078Z,9.67
2018-12-08T09:21:51.510Z,5.83
2018-12-08T09:24:18.943Z,12.30
2018-12-08T09:26:47.018Z,12.03
2018-12-08T09:29:14.447Z,14.28
2018-12-08T09:31:41.937Z,14.67
2018-12-08T09:34:09.655Z,8.10
2018-12-08T09:36:37.227Z,11.63
2018-12-08T09:39:06.939Z,11.93
2018-12-08T09:41:34.371Z,9.73
2018-12-08T09:44:01.862Z,12.75
2018-12-08T09:46:29.386Z,13.70
2018-12-08T09:48:56.795Z,8.80
2018-12-08T09:51:24.389Z,11.90
2018-12-08T09:53:51.880Z,11.57
2018-12-08T09:56:19.312Z,16.20
2018-12-08T09:58:46.876Z,14.78
2018-12-08T10:01:14.429Z,15.60
2018-12-08T10:03:42.005Z,13.58
2018-12-08T10:06:09.429Z,14.70
2018-12-08T10:08:36.905Z,14.83
2018-12-08T10:11:04.376Z,18.02
2018-12-08T10:13:31.825Z,15.83
2018-12-08T10:15:59.250Z,15.20
2018-12-08T10:18:26.733Z,16.27
2018-12-08T10:20:54.169Z,16.10
2018-12-08T10:23:21.664Z,18.92
2018-12-08T10:25:49.118Z,17.07
2018-12-08T10:28:16.537Z,15.70
2018-12-08T10:30:44.015Z,19.07
2018-12-08T10:33:11.493Z,18.17
2018-12-08T10:35:38.948Z,15.35
2018-12-08T10:38:06.416Z,15.68
2018-12-08T10:40:33.889Z,18.30
2018-12-08T10:43:01.354Z,16.52
2018-12-08T10:45:28.836Z,18.95
2018-12-08T10:47:56.331Z,17.73
2018-12-08T10:50:23.777Z,19.65
2018-12-08T10:52:51.256Z,19.32
2018-12-08T10:55:18.811Z,20.48
2018-12-08T10:57:46.271Z,17.05
2018-12-08T11:00:15.710Z,15.10
2018-12-08T11:02:45.182Z,15.95
2018-12-08T11:05:12.713Z,19.62
2018-12-08T11:07:40.181Z,19.15
2018-12-08T11:10:07.585Z,15.68
2018-12-08T11:12:35.089Z,17.63
2018-12-08T11:15:02.575Z,16.12
2018-12-08T11:17:30.023Z,21.07
2018-12-08T11:19:57.471Z,22.10
2018-12-08T11:22:25.139Z,17.27
2018-12-08T11:24:52.577Z,13.98
2018-12-08T11:27:20.034Z,23.10
2018-12-08T11:29:47.515Z,18.65
2018-12-08T11:32:14.972Z,14.90
2018-12-08T11:34:42.407Z,17.05
2018-12-08T11:37:09.834Z,18.57
2018-12-08T11:39:37.331Z,23.05
2018-12-08T11:42:04.749Z,22.40
2018-12-08T11:44:32.189Z,20.55
2018-12-08T11:46:59.864Z,18.07
2018-12-08T11:49:27.284Z,17.80
2018-12-08T11:51:54.728Z,17.57
2018-12-08T11:54:22.207Z,17.00
2018-12-08T11:56:49.612Z,22.15
2018-12-08T11:59:17.037Z,25.27
2018-12-08T12:01:44.496Z,24.45
2018-12-08T12:04:12.010Z,18.65
2018-12-08T12:06:39.464Z,16.40
2018-12-08T12:09:06.874Z,19.12
2018-12-08T12:11:34.302Z,23.32
2018-12-08T12:14:01.716Z,18.77
2018-12-08T12:16:29.134Z,21.83
2018-12-08T12:18:56.563Z,22.20
2018-12-08T12:21:23.982Z,16.37
2018-12-08T12:23:51.458Z,16.27
2018-12-08T12:26:18.897Z,20.65
2018-12-08T12:28:46.473Z,15.83
2018-12-08T12:31:13.960Z,19.52
2018-12-08T12:33:41.498Z,21.97
2018-12-08T12:36:08.933Z,16.12
2018-12-08T12:38:36.597Z,19.90
2018-12-08T12:41:04.056Z,19.92
2018-12-08T12:43:31.520Z,24.63
2018-12-08T12:45:58.954Z,23.20
2018-12-08T12:48:26.539Z,17.43
2018-12-08T12:50:53.985Z,19.75
2018-12-08T12:53:22.164Z,22.10
2018-12-08T12:55:49.618Z,22.62
2018-12-08T12:58:17.039Z,16.60
2018-12-08T13:00:44.478Z,12.70
2018-12-08T13:03:11.989Z,17.48
2018-12-08T13:05:39.463Z,18.92
2018-12-08T13:08:06.879Z,17.13
2018-12-08T13:10:34.365Z,20.70
2018-12-08T13:13:01.835Z,16.65
2018-12-08T13:15:29.251Z,18.10
2018-12-08T13:17:56.695Z,18.23
2018-12-08T13:20:24.213Z,19.90
2018-12-08T13:22:51.616Z,17.35
2018-12-08T13:25:21.660Z,19.67
2018-12-08T13:27:49.128Z,17.87
2018-12-08T13:30:16.686Z,23.63
2018-12-08T13:32:44.260Z,18.73
2018-12-08T13:35:33.392Z,19.75
2018-12-08T13:38:00.804Z,22.25
2018-12-08T13:40:28.413Z,17.73
2018-12-08T13:42:55.895Z,19.85
2018-12-08T13:45:23.336Z,20.85
2018-12-08T13:47:50.859Z,15.28
2018-12-08T13:50:18.360Z,16.07
2018-12-08T13:52:45.808Z,20.02
2018-12-08T13:55:13.372Z,17.90
2018-12-08T13:57:40.792Z,22.70
2018-12-08T14:00:08.325Z,16.75
2018-12-08T14:02:35.738Z,21.07
2018-12-08T14:05:03.204Z,15.58
2018-12-08T14:07:30.660Z,15.30
2018-12-08T14:09:58.121Z,26.65
2018-12-08T14:12:25.572Z,19.60
2018-12-08T14:14:53.017Z,20.73
2018-12-08T14:17:20.437Z,14.90
2018-12-08T14:19:47.956Z,15.50
2018-12-08T14:22:15.402Z,16.37
2018-12-08T14:24:42.822Z,12.10
2018-12-08T14:27:10.316Z,18.07
2018-12-08T14:29:37.759Z,17.30
2018-12-08T14:32:05.257Z,18.12
2018-12-08T14:34:32.773Z,21.30
2018-12-08T14:37:00.243Z,15.10
2018-12-08T14:39:27.679Z,15.10
2018-12-08T14:41:55.142Z,21.97
2018-12-08T14:44:22.647Z,16.97
2018-12-08T14:46:50.095Z,13.35
2018-12-08T14:49:17.514Z,13.85
2018-12-08T14:51:44.963Z,12.68
2018-12-08T14:54:12.400Z,16.50
2018-12-08T14:56:39.974Z,14.20
2018-12-08T14:59:07.393Z,16.20
2018-12-08T15:01:34.932Z,14.60
2018-12-08T15:04:02.383Z,14.10
2018-12-08T15:06:29.874Z,20.93
2018-12-08T15:08:57.390Z,14.45
2018-12-08T15:11:25.782Z,18.62
2018-12-08T15:13:53.336Z,16.62
2018-12-08T15:16:20.778Z,16.70
2018-12-08T15:18:48.241Z,17.75
2018-12-08T15:21:15.670Z,24.65
2018-12-08T15:23:43.151Z,15.90
2018-12-08T15:26:10.701Z,23.12
2018-12-08T15:28:38.156Z,20.80
2018-12-08T15:31:05.739Z,13.50
2018-12-08T15:33:33.196Z,19.92
2018-12-08T15:36:00.624Z,23.77
2018-12-08T15:38:28.062Z,21.62
2018-12-08T15:40:55.556Z,27.80
2018-12-08T15:43:22.978Z,20.95
2018-12-08T15:45:50.469Z,24.47
2018-12-08T15:48:17.908Z,22.85
2018-12-08T15:50:45.377Z,18.60
2018-12-08T15:53:12.811Z,18.82
2018-12-08T15:55:40.289Z,21.90
2018-12-08T15:58:07.737Z,16.57
2018-12-08T16:00:35.253Z,16.48
2018-12-08T16:03:02.770Z,17.70
2018-12-08T16:05:30.196Z,21.90
2018-12-08T16:07:57.604Z,18.30
2018-12-08T16:10:25.037Z,15.83
2018-12-08T16:12:52.467Z,15.05
2018-12-08T16:15:19.888Z,10.63
2018-12-08T16:17:47.323Z,16.05
2018-12-08T16:20:14.746Z,17.17
2018-12-08T16:22:42.247Z,17.77
2018-12-08T16:25:09.797Z,16.20
2018-12-08T16:27:37.337Z,18.55
2018-12-08T16:30:06.444Z,19.57
2018-12-08T16:32:35.950Z,17.50
2018-12-08T16:35:04.102Z,16.25
2018-12-08T16:37:31.665Z,15.60
2018-12-08T16:39:59.131Z,28.02
2018-12-08T16:42:26.611Z,16.63
2018-12-08T16:44:54.076Z,18.50
2018-12-08T16:47:21.598Z,21.00
2018-12-08T16:49:49.124Z,23.50
2018-12-08T16:52:16.740Z,16.40
2018-12-08T16:54:44.267Z,18.25
2018-12-08T16:57:11.671Z,18.00
2018-12-08T16:59:39.200Z,18.50
2018-12-08T17:02:06.764Z,22.65
2018-12-08T17:04:34.220Z,15.83
2018-12-08T17:07:01.663Z,17.92
2018-12-08T17:09:29.079Z,24.67
2018-12-08T17:11:56.591Z,20.73
2018-12-08T17:14:24.065Z,19.98
2018-12-08T17:16:51.486Z,25.85
2018-12-08T17:19:18.946Z,16.35
2018-12-08T17:21:46.419Z,24.95
2018-12-08T17:24:13.861Z,16.25
2018-12-08T17:26:41.342Z,21.42
2018-12-08T17:29:08.860Z,17.70
2018-12-08T17:31:36.289Z,15.60
2018-12-08T17:34:03.789Z,19.32
2018-12-08T17:36:31.269Z,22.50
2018-12-08T17:38:58.735Z,23.90
2018-12-08T17:41:26.287Z,22.22
2018-12-08T17:43:53.727Z,24.53
2018-12-08T17:46:21.208Z,25.05
2018-12-08T17:48:48.672Z,18.27
2018-12-08T17:51:16.090Z,27.87
2018-12-08T17:53:43.569Z,31.42
2018-12-08T17:56:11.005Z,26.70
2018-12-08T17:58:38.474Z,29.20
2018-12-08T18:01:05.961Z,31.15
2018-12-08T18:03:33.374Z,25.82
2018-12-08T18:06:00.837Z,21.00
2018-12-08T18:08:28.321Z,28.67
2018-12-08T18:10:55.800Z,25.15
2018-12-08T18:13:23.213Z,26.37
2018-12-08T18:15:50.682Z,28.42
2018-12-08T18:18:18.136Z,33.50
2018-12-08T18:20:45.557Z,23.77
2018-12-08T18:23:13.155Z,27.17
2018-12-08T18:25:40.619Z,27.77
2018-12-08T18:28:08.040Z,21.02
2018-12-08T18:30:35.452Z,17.40
2018-12-08T18:33:02.854Z,24.45
2018-12-08T18:35:30.335Z,17.03
2018-12-08T18:37:57.737Z,16.93
2018-12-08T18:40:25.246Z,23.32
2018-12-08T18:42:52.707Z,13.50
2018-12-08T18:45:20.123Z,15.60
2018-12-08T18:47:47.598Z,16.42
2018-12-08T18:50:15.018Z,15.83
2018-12-08T18:52:42.535Z,11.08
2018-12-08T18:55:09.981Z,13.08
2018-12-08T18:57:37.455Z,9.43
2018-12-08T19:00:08.280Z,8.58
2018-12-08T19:02:35.737Z,9.45
2018-12-08T19:05:03.306Z,10.72
2018-12-08T19:07:30.727Z,6.67
2018-12-08T19:09:58.173Z,5.83
2018-12-08T19:12:25.762Z,9.80
2018-12-08T19:14:53.332Z,9.08
2018-12-08T19:17:20.772Z,11.40
2018-12-08T19:19:48.252Z,5.55
2018-12-08T19:22:15.742Z,6.37
2018-12-08T19:24:43.167Z,7.58
2018-12-08T19:27:10.599Z,10.25
2018-12-08T19:29:38.019Z,6.60
2018-12-08T19:32:05.430Z,9.98
2018-12-08T19:34:33.012Z,12.90
2018-12-08T19:37:00.547Z,12.80
2018-12-08T19:39:28.073Z,8.40
2018-12-08T19:41:55.515Z,8.48
2018-12-08T19:44:23.017Z,7.83
2018-12-08T19:46:50.482Z,7.50
2018-12-08T19:49:18.025Z,11.55
2018-12-08T19:51:45.491Z,5.20
2018-12-08T19:54:12.955Z,11.10
2018-12-08T19:56:40.407Z,6.70
2018-12-08T19:59:07.848Z,5.40
2018-12-08T20:01:35.260Z,4.40
2018-12-08T20:04:02.704Z,5.15
2018-12-08T20:06:30.109Z,6.92
2018-12-08T20:08:57.651Z,6.95
2018-12-08T20:11:25.077Z,6.03
2018-12-08T20:13:52.504Z,7.67
2018-12-08T20:16:20.070Z,4.08
2018-12-08T20:18:47.483Z,4.40
2018-12-08T20:21:14.991Z,6.00
2018-12-08T20:23:42.449Z,7.45
2018-12-08T20:26:09.870Z,3.60
2018-12-08T20:28:37.280Z,8.13
2018-12-08T20:31:04.716Z,3.83
2018-12-08T20:33:32.151Z,4.62
2018-12-08T20:35:59.605Z,4.80
2018-12-08T20:38:27.084Z,6.12
2018-12-08T20:40:54.536Z,5.67
2018-12-08T20:43:21.977Z,5.80
2018-12-08T20:45:49.432Z,4.40
2018-12-08T20:48:17.271Z,5.40
2018-12-08T20:50:45.246Z,6.42
2018-12-08T20:53:12.770Z,8.80
2018-12-08T20:55:40.213Z,8.23
2018-12-08T20:58:07.648Z,9.23
2018-12-08T21:00:35.073Z,11.80
2018-12-08T21:03:02.514Z,6.53
2018-12-08T21:05:29.917Z,3.50
2018-12-08T21:07:57.365Z,2.60
2018-12-08T21:10:24.821Z,2.00
2018-12-08T21:12:52.296Z,2.30
2018-12-08T21:15:19.709Z,2.08
2018-12-08T21:17:47.196Z,2.60
2018-12-08T21:20:14.657Z,2.40
2018-12-08T21:22:42.117Z,3.20
2018-12-08T21:25:09.668Z,1.90
2018-12-08T21:27:37.139Z,1.80
2018-12-08T21:30:05.620Z,4.20
2018-12-08T21:32:33.038Z,2.10
2018-12-08T21:35:00.459Z,1.35
2018-12-08T21:37:27.903Z,1.77
2018-12-08T21:39:55.345Z,2.50
2018-12-08T21:42:22.793Z,3.30
2018-12-08T21:44:50.358Z,1.63
2018-12-08T21:47:17.784Z,2.72
2018-12-08T21:49:45.220Z,2.20
2018-12-08T21:52:13.500Z,3.00
2018-12-08T21:54:40.944Z,1.80
2018-12-08T21:57:08.466Z,3.20
2018-12-08T21:59:35.899Z,1.62
2018-12-08T22:02:03.369Z,3.57
2018-12-08T22:04:30.766Z,1.82
2018-12-08T22:06:58.280Z,3.37
2018-12-08T22:09:25.681Z,3.50
2018-12-08T22:11:53.112Z,4.50
2018-12-08T22:14:20.644Z,3.92
2018-12-08T22:16:48.115Z,6.62
2018-12-08T22:19:15.567Z,7.40
2018-12-08T22:21:42.982Z,9.70
2018-12-08T22:24:10.405Z,7.33
2018-12-08T22:26:37.829Z,12.30
2018-12-08T22:29:05.298Z,9.05
2018-12-08T22:31:32.864Z,8.93
2018-12-08T22:34:00.302Z,7.77
2018-12-08T22:36:27.719Z,14.80
2018-12-08T22:38:55.154Z,14.00
2018-12-08T22:41:22.571Z,13.28
2018-12-08T22:43:49.987Z,14.95
2018-12-08T22:46:17.519Z,15.40
2018-12-08T22:48:44.941Z,12.37
2018-12-08T22:51:12.420Z,15.55
2018-12-08T22:53:39.864Z,10.80
2018-12-08T22:56:07.322Z,17.10
2018-12-08T22:58:34.783Z,18.40
2018-12-08T23:01:02.346Z,10.70
2018-12-08T23:03:29.765Z,10.60
2018-12-08T23:05:57.181Z,13.25
2018-12-08T23:08:24.588Z,15.05
2018-12-08T23:10:52.073Z,14.73
2018-12-08T23:13:19.718Z,15.50
2018-12-08T23:15:47.139Z,20.88
2018-12-08T23:18:14.728Z,10.90
2018-12-08T23:20:42.188Z,13.80
2018-12-08T23:23:09.654Z,13.15
2018-12-08T23:25:37.114Z,15.35
2018-12-08T23:28:04.562Z,18.42
2018-12-08T23:30:32.006Z,19.80
2018-12-08T23:32:59.418Z,20.15
2018-12-08T23:35:26.955Z,19.42
2018-12-08T23:37:54.433Z,24.55
2018-12-08T23:40:21.885Z,14.00
2018-12-08T23:42:49.407Z,17.23
2018-12-08T23:45:16.839Z,23.10
2018-12-08T23:47:44.335Z,16.17
2018-12-08T23:50:11.907Z,21.17
2018-12-08T23:52:39.343Z,14.28
2018-12-08T23:55:06.912Z,15.83
2018-12-08T23:57:34.375Z,16.27
